createdAt,value
2018-05-18T12:46:28.015Z,35.00
2018-05-18T12:48:54.001Z,34.20
2018-05-18T12:51:20.708Z,36.80
2018-05-18T12:53:46.662Z,36.50
2018-05-18T12:56:13.499Z,36.50
2018-05-18T12:58:39.849Z,33.70
2018-05-18T13:01:06.529Z,33.30
2018-05-18T13:03:32.477Z,33.30
2018-05-18T13:05:58.754Z,33.40
2018-05-18T13:08:24.694Z,33.50
2018-05-18T13:10:51.386Z,33.10
2018-05-18T13:13:17.665Z,33.10
2018-05-18T13:15:44.362Z,33.60
2018-05-18T13:18:10.325Z,33.50
2018-05-18T13:20:36.297Z,33.60
2018-05-18T13:23:02.259Z,33.50
2018-05-18T13:25:28.220Z,33.60
2018-05-18T13:27:54.460Z,34.00
2018-05-18T13:30:21.142Z,34.00
2018-05-18T13:32:47.090Z,34.00
2018-05-18T13:35:13.053Z,33.70
2018-05-18T13:37:39.010Z,33.90
2018-05-18T13:40:04.962Z,33.70
2018-05-18T13:42:30.919Z,33.60
2018-05-18T13:44:56.977Z,33.90
2018-05-18T13:47:23.618Z,34.00
2018-05-18T13:49:50.675Z,34.30
2018-05-18T13:52:17.356Z,34.50
2018-05-18T13:54:43.308Z,34.40
2018-05-18T13:57:09.370Z,34.50
2018-05-18T13:59:35.982Z,33.60
2018-05-18T14:02:01.946Z,33.50
2018-05-18T14:04:29.011Z,33.40
2018-05-18T14:06:55.721Z,33.70
2018-05-18T14:09:21.678Z,33.60
2018-05-18T14:11:48.369Z,34.10
2018-05-18T14:14:14.313Z,34.10
2018-05-18T14:16:40.273Z,34.50
2018-05-18T14:19:06.975Z,36.30
2018-05-18T14:21:32.928Z,36.30
2018-05-18T14:23:59.196Z,38.90
2018-05-18T14:26:25.186Z,38.90
2018-05-18T14:28:51.166Z,39.80
2018-05-18T14:31:17.118Z,40.50
2018-05-18T14:33:43.070Z,41.60
2018-05-18T14:36:09.042Z,41.80
2018-05-18T14:38:35.361Z,39.30
2018-05-18T14:41:02.054Z,40.40
2018-05-18T14:43:28.006Z,40.40
2018-05-18T14:45:54.034Z,40.60
2018-05-18T14:48:20.018Z,40.40
2018-05-18T14:50:45.970Z,41.30
2018-05-18T14:53:12.260Z,41.10
2018-05-18T14:55:38.982Z,40.60
2018-05-18T14:58:04.942Z,40.60
2018-05-18T15:00:31.663Z,39.70
2018-05-18T15:02:57.631Z,39.60
2018-05-18T15:05:23.597Z,40.00
2018-05-18T15:07:49.554Z,39.40
2018-05-18T15:10:15.514Z,39.40
2018-05-18T15:12:41.469Z,41.20
2018-05-18T15:15:07.754Z,39.80
2018-05-18T15:17:34.451Z,38.30
2018-05-18T15:20:00.418Z,38.20
2018-05-18T15:22:27.785Z,39.10
2018-05-18T15:24:53.734Z,39.10
2018-05-18T15:27:19.647Z,40.10
2018-05-18T15:29:48.227Z,41.00
2018-05-18T15:32:14.166Z,41.10
2018-05-18T15:34:40.854Z,41.80
2018-05-18T15:37:06.806Z,41.80
2018-05-18T15:39:32.760Z,42.90
2018-05-18T15:41:59.474Z,42.30
2018-05-18T15:44:25.467Z,42.30
2018-05-18T15:46:51.438Z,41.50
2018-05-18T15:49:17.459Z,42.30
2018-05-18T15:51:43.402Z,40.90
2018-05-18T15:54:09.357Z,41.20
2018-05-18T15:56:36.049Z,40.20
2018-05-18T15:59:02.345Z,40.20
2018-05-18T16:01:28.298Z,40.90
2018-05-18T16:03:54.252Z,40.10
2018-05-18T16:06:20.630Z,40.40
2018-05-18T16:08:47.327Z,41.60
2018-05-18T16:11:13.283Z,41.50
2018-05-18T16:13:39.439Z,41.30
2018-05-18T16:16:06.158Z,41.00
2018-05-18T16:18:32.120Z,40.90
2018-05-18T16:20:58.125Z,41.00
2018-05-18T16:23:24.049Z,41.10
2018-05-18T16:25:50.785Z,42.10
2018-05-18T16:28:17.557Z,41.60
2018-05-18T16:30:43.446Z,42.00
2018-05-18T16:33:09.426Z,42.90
2018-05-18T16:35:35.687Z,42.70
2018-05-18T16:38:01.637Z,43.20
2018-05-18T16:40:28.189Z,43.10
2018-05-18T16:42:54.446Z,42.60
2018-05-18T16:47:11.825Z,45.10
2018-05-18T16:49:38.543Z,44.50
2018-05-18T16:52:04.513Z,44.40
2018-05-18T16:55:20.658Z,44.90
2018-05-18T16:57:46.603Z,45.60
2018-05-18T17:26:10.322Z,45.80
2018-05-18T17:28:36.594Z,44.20
2018-05-18T17:31:02.552Z,45.00
2018-05-18T17:33:28.498Z,45.40
2018-05-18T17:35:54.450Z,44.10
2018-05-18T17:38:20.413Z,44.60
2018-05-18T17:40:46.725Z,45.60
2018-05-18T17:43:13.414Z,46.80
2018-05-18T17:45:39.394Z,46.80
2018-05-18T17:48:06.449Z,46.50
2018-05-18T17:50:33.142Z,47.50
2018-05-18T17:52:59.090Z,47.50
2018-05-18T17:55:25.355Z,47.70
2018-05-18T17:57:52.070Z,46.50
2018-05-18T18:00:18.025Z,46.50
2018-05-18T18:02:43.979Z,47.10
2018-05-18T18:05:09.925Z,48.20
2018-05-18T18:07:35.905Z,48.10
2018-05-18T18:10:01.899Z,47.90
2018-05-18T18:12:27.851Z,47.90
2018-05-18T18:14:53.807Z,48.10
2018-05-18T18:17:20.493Z,47.60
2018-05-18T18:19:46.467Z,47.50
2018-05-18T18:22:12.419Z,47.60
2018-05-18T18:24:39.124Z,47.90
2018-05-18T18:27:05.814Z,49.20
2018-05-18T18:29:31.771Z,49.10
2018-05-18T18:31:57.727Z,48.90
2018-05-18T18:34:24.440Z,49.50
2018-05-18T18:36:50.394Z,49.50
2018-05-18T18:39:16.363Z,49.70
2018-05-18T18:41:43.070Z,48.60
2018-05-18T18:44:09.031Z,48.50
2018-05-18T18:46:35.762Z,48.10
2018-05-18T18:49:02.084Z,48.00
2018-05-18T18:51:28.048Z,47.40
2018-05-18T18:53:54.063Z,47.40
2018-05-18T18:56:21.125Z,49.20
2018-05-18T18:58:47.892Z,49.40
2018-05-18T19:01:13.881Z,49.40
2018-05-18T19:03:40.642Z,48.40
2018-05-18T19:06:07.382Z,48.40
2018-05-18T19:08:34.224Z,49.00
2018-05-18T19:11:00.872Z,49.00
2018-05-18T19:13:27.594Z,49.00
2018-05-18T19:15:53.553Z,49.00
2018-05-18T19:18:20.317Z,50.70
2018-05-18T19:20:46.304Z,50.60
2018-05-18T19:23:12.306Z,50.50
2018-05-18T19:25:38.284Z,50.70
2018-05-18T19:28:05.002Z,50.20
2018-05-18T19:30:31.003Z,50.00
2018-05-18T19:32:56.988Z,49.10
2018-05-18T19:35:23.712Z,50.50
2018-05-18T19:37:49.705Z,50.40
2018-05-18T19:40:15.708Z,50.00
2018-05-18T19:42:41.718Z,50.00
2018-05-18T19:45:08.442Z,49.90
2018-05-18T19:47:34.417Z,49.90
2018-05-18T19:50:00.488Z,48.90
2018-05-18T19:52:26.396Z,49.60
2018-05-18T19:54:52.385Z,49.40
2018-05-18T19:57:19.118Z,50.50
2018-05-18T19:59:45.099Z,50.40
2018-05-18T20:02:11.079Z,49.00
2018-05-18T20:04:37.096Z,49.90
2018-05-18T20:07:03.460Z,49.20
2018-05-18T20:09:30.188Z,48.50
2018-05-18T20:11:56.172Z,48.50
2018-05-18T20:14:22.138Z,48.20
2018-05-18T20:16:48.135Z,47.40
2018-05-18T20:19:14.121Z,49.00
2018-05-18T20:21:41.180Z,50.40
2018-05-18T20:24:07.886Z,50.10
2018-05-18T20:26:33.899Z,50.10
2018-05-18T20:28:59.898Z,48.20
2018-05-18T20:31:25.889Z,49.30
2018-05-18T20:33:52.618Z,50.10
2018-05-18T20:36:18.616Z,50.30
2018-05-18T20:38:44.617Z,50.00
2018-05-18T20:41:11.329Z,49.80
2018-05-18T20:43:38.411Z,49.20
2018-05-18T20:46:05.164Z,49.60
2018-05-18T20:48:31.881Z,49.60
2018-05-18T20:50:57.925Z,49.70
2018-05-18T20:53:24.664Z,48.90
2018-05-18T20:55:51.397Z,48.90
2018-05-18T20:58:17.392Z,48.80
2018-05-18T21:00:43.680Z,48.80
2018-05-18T21:03:09.747Z,48.60
2018-05-18T21:05:36.052Z,48.10
2018-05-18T21:08:02.781Z,47.40
2018-05-18T21:10:29.588Z,47.70
2018-05-18T21:12:55.547Z,47.60
2018-05-18T21:15:21.552Z,47.20
2018-05-18T21:17:47.709Z,47.30
2018-05-18T21:20:13.966Z,47.30
2018-05-18T21:22:40.693Z,46.90
2018-05-18T21:28:00.268Z,46.30
2018-05-18T21:30:26.299Z,46.30
2018-05-18T21:32:52.230Z,46.70
2018-05-18T21:35:18.203Z,46.30
2018-05-18T21:37:44.457Z,47.00
2018-05-18T21:40:10.430Z,46.70
2018-05-18T21:42:37.173Z,46.90
2018-05-18T21:45:03.175Z,46.90
2018-05-18T21:47:29.170Z,47.00
2018-05-18T21:49:55.171Z,46.90
2018-05-18T21:52:21.905Z,47.40
2018-05-18T21:54:47.885Z,47.40
2018-05-18T21:57:13.868Z,46.70
2018-05-18T21:59:39.879Z,46.50
2018-05-18T22:02:05.851Z,46.60
2018-05-18T22:04:32.646Z,46.90
2018-05-18T22:06:58.649Z,46.90
2018-05-18T22:09:24.641Z,47.10
2018-05-18T22:11:50.620Z,47.30
2018-05-18T22:14:16.666Z,47.00
2018-05-18T22:16:42.641Z,47.00
2018-05-18T22:19:09.376Z,46.60
2018-05-18T22:21:36.124Z,46.30
2018-05-18T22:24:02.112Z,46.20
2018-05-18T22:26:28.163Z,46.60
2018-05-18T22:28:54.151Z,45.60
2018-05-18T22:31:20.155Z,46.10
2018-05-18T22:33:46.901Z,46.50
2018-05-18T22:36:13.644Z,45.60
2018-05-18T22:38:39.670Z,45.70
2018-05-18T22:41:06.496Z,46.80
2018-05-18T22:43:32.433Z,46.80
2018-05-18T22:45:58.435Z,47.00
2018-05-18T22:48:24.507Z,46.80
2018-05-18T22:50:51.292Z,47.00
2018-05-18T22:53:17.288Z,47.00
2018-05-18T22:55:44.290Z,46.70
2018-05-18T22:58:10.281Z,46.70
2018-05-18T23:00:36.309Z,47.50
2018-05-18T23:03:02.302Z,46.60
2018-05-18T23:05:29.049Z,46.00
2018-05-18T23:07:55.405Z,45.90
2018-05-18T23:10:22.154Z,47.10
2018-05-18T23:12:48.877Z,47.20
2018-05-18T23:15:14.869Z,47.20
2018-05-18T23:17:40.915Z,47.20
2018-05-18T23:20:06.938Z,46.90
2018-05-18T23:22:33.339Z,46.70
2018-05-18T23:24:59.322Z,46.60
2018-05-18T23:27:25.305Z,46.90
2018-05-18T23:29:51.285Z,46.50
2018-05-18T23:32:17.287Z,46.30
2018-05-18T23:34:43.291Z,46.50
2018-05-18T23:37:09.599Z,46.00
2018-05-18T23:39:36.327Z,46.70
2018-05-18T23:42:02.307Z,46.40
2018-05-18T23:44:28.626Z,45.90
2018-05-18T23:46:54.590Z,46.40
2018-05-18T23:49:20.582Z,46.50
2018-05-18T23:51:47.631Z,45.90
2018-05-18T23:54:14.358Z,46.10
2018-05-18T23:56:40.353Z,46.10
2018-05-18T23:59:06.351Z,46.50
